createdAt,value
2018-02-07T00:02:09.945Z,17.23
2018-02-07T00:04:37.407Z,16.03
2018-02-07T00:07:04.856Z,16.70
2018-02-07T00:09:32.314Z,18.20
2018-02-07T00:11:59.772Z,15.27
2018-02-07T00:14:27.222Z,15.13
2018-02-07T00:16:54.682Z,15.67
2018-02-07T00:19:22.217Z,17.60
2018-02-07T00:21:49.659Z,17.73
2018-02-07T00:24:17.866Z,18.47
2018-02-07T00:26:45.331Z,16.63
2018-02-07T00:29:12.783Z,17.47
2018-02-07T00:31:40.235Z,16.93
2018-02-07T00:34:07.680Z,16.63
2018-02-07T00:36:35.137Z,18.03
2018-02-07T00:39:02.575Z,16.30
2018-02-07T00:41:31.809Z,16.30
2018-02-07T00:43:59.259Z,17.23
2018-02-07T00:46:26.736Z,18.10
2018-02-07T00:48:54.190Z,15.70
2018-02-07T00:51:21.650Z,19.10
2018-02-07T00:53:49.088Z,17.70
2018-02-07T00:56:16.524Z,18.90
2018-02-07T00:58:44.745Z,16.00
2018-02-07T01:01:12.240Z,18.97
2018-02-07T01:03:39.674Z,15.90
2018-02-07T01:06:07.118Z,16.60
2018-02-07T01:08:34.575Z,16.80
2018-02-07T01:11:02.085Z,19.10
2018-02-07T01:13:30.303Z,14.77
2018-02-07T01:15:57.753Z,16.37
2018-02-07T01:18:25.607Z,18.50
2018-02-07T01:20:53.803Z,18.40
2018-02-07T01:23:21.253Z,16.40
2018-02-07T01:25:48.696Z,16.77
2018-02-07T01:28:16.165Z,16.83
2018-02-07T01:30:44.617Z,17.43
2018-02-07T01:33:12.842Z,18.53
2018-02-07T01:35:40.309Z,18.17
2018-02-07T01:38:07.773Z,18.20
2018-02-07T01:40:35.214Z,16.80
2018-02-07T01:43:02.665Z,18.00
2018-02-07T01:45:30.130Z,18.00
2018-02-07T01:47:57.584Z,18.37
2018-02-07T01:50:25.050Z,19.77
2018-02-07T01:52:52.507Z,17.20
2018-02-07T01:55:19.964Z,19.23
2018-02-07T01:57:47.425Z,19.70
2018-02-07T02:00:14.879Z,19.47
2018-02-07T02:02:42.321Z,18.37
2018-02-07T02:05:09.772Z,19.53
2018-02-07T02:07:37.230Z,20.67
2018-02-07T02:10:04.698Z,20.13
2018-02-07T02:12:32.144Z,17.30
2018-02-07T02:14:59.607Z,17.73
2018-02-07T02:17:27.071Z,19.97
2018-02-07T02:19:55.298Z,18.77
2018-02-07T02:22:23.525Z,19.57
2018-02-07T02:24:50.981Z,18.30
2018-02-07T02:27:18.434Z,20.43
2018-02-07T02:29:45.892Z,19.90
2018-02-07T02:32:13.353Z,18.30
2018-02-07T02:34:40.817Z,18.73
2018-02-07T02:37:08.288Z,16.47
2018-02-07T02:39:35.741Z,20.37
2018-02-07T02:42:03.192Z,19.97
2018-02-07T02:44:30.651Z,20.03
2018-02-07T02:46:58.110Z,18.80
2018-02-07T02:49:26.316Z,17.83
2018-02-07T02:51:54.529Z,20.70
2018-02-07T02:54:21.971Z,19.33
2018-02-07T02:56:49.430Z,19.30
2018-02-07T02:59:16.880Z,20.17
2018-02-07T03:01:44.327Z,20.87
2018-02-07T03:04:12.621Z,20.10
2018-02-07T03:06:40.093Z,18.20
2018-02-07T03:09:07.535Z,20.60
2018-02-07T03:11:34.971Z,19.47
2018-02-07T03:14:03.182Z,18.80
2018-02-07T03:16:30.642Z,19.80
2018-02-07T03:18:58.087Z,20.23
2018-02-07T03:21:25.537Z,20.60
2018-02-07T03:23:53.006Z,18.10
2018-02-07T03:26:20.451Z,19.97
2018-02-07T03:28:47.900Z,17.23
2018-02-07T03:31:15.359Z,19.40
2018-02-07T03:33:42.796Z,19.13
2018-02-07T03:36:11.024Z,19.00
2018-02-07T03:38:38.482Z,23.17
2018-02-07T03:41:05.928Z,18.90
2018-02-07T03:43:33.366Z,21.27
2018-02-07T03:46:00.824Z,19.53
2018-02-07T03:48:28.275Z,18.63
2018-02-07T03:50:56.504Z,20.23
2018-02-07T03:53:23.956Z,17.97
2018-02-07T03:55:51.410Z,19.40
2018-02-07T03:58:18.859Z,18.63
2018-02-07T04:00:46.376Z,19.60
2018-02-07T04:03:13.829Z,19.83
2018-02-07T04:05:42.049Z,20.03
2018-02-07T04:08:10.482Z,17.50
2018-02-07T04:10:38.708Z,18.80
2018-02-07T04:13:06.155Z,19.10
2018-02-07T04:15:33.593Z,22.90
2018-02-07T04:18:01.046Z,19.33
2018-02-07T04:20:28.496Z,22.67
2018-02-07T04:22:55.952Z,19.97
2018-02-07T04:25:24.170Z,20.00
2018-02-07T04:27:51.623Z,23.07
2018-02-07T04:30:19.076Z,19.07
2018-02-07T04:32:46.557Z,20.10
2018-02-07T04:35:14.067Z,19.30
2018-02-07T04:37:41.521Z,19.37
2018-02-07T04:40:08.968Z,19.10
2018-02-07T04:42:37.224Z,22.40
2018-02-07T04:45:04.681Z,18.60
2018-02-07T04:47:32.126Z,21.30
2018-02-07T04:49:59.583Z,19.17
2018-02-07T04:52:27.033Z,18.93
2018-02-07T04:54:54.480Z,20.40
2018-02-07T04:57:21.941Z,19.40
2018-02-07T04:59:49.400Z,19.23
2018-02-07T05:02:16.841Z,20.63
2018-02-07T05:04:44.292Z,19.30
2018-02-07T05:07:18.404Z,19.90
2018-02-07T05:09:45.848Z,20.23
2018-02-07T05:12:13.305Z,20.87
2018-02-07T05:14:40.763Z,20.50
2018-02-07T05:17:08.205Z,22.03
2018-02-07T05:19:36.463Z,22.17
2018-02-07T05:22:04.755Z,20.23
2018-02-07T05:24:33.030Z,21.83
2018-02-07T05:27:01.308Z,18.97
2018-02-07T05:29:29.651Z,19.60
2018-02-07T05:31:57.095Z,20.87
2018-02-07T05:34:24.542Z,21.60
2018-02-07T05:36:51.993Z,20.97
2018-02-07T05:39:19.458Z,24.93
2018-02-07T05:41:46.900Z,20.07
2018-02-07T05:44:17.594Z,21.83
2018-02-07T05:46:45.821Z,22.23
2018-02-07T05:49:13.251Z,21.07
2018-02-07T05:51:40.709Z,22.57
2018-02-07T05:54:08.153Z,21.90
2018-02-07T05:56:36.362Z,22.00
2018-02-07T05:59:03.828Z,20.87
2018-02-07T06:01:31.264Z,21.70
2018-02-07T06:03:58.716Z,19.33
2018-02-07T06:06:26.159Z,19.57
2018-02-07T06:08:53.609Z,19.77
2018-02-07T06:11:21.838Z,21.20
2018-02-07T06:13:49.344Z,22.57
2018-02-07T06:16:17.555Z,22.50
2018-02-07T06:18:45.001Z,21.90
2018-02-07T06:21:12.437Z,19.73
2018-02-07T06:23:40.708Z,21.87
2018-02-07T06:26:08.907Z,23.37
2018-02-07T06:28:36.347Z,21.97
2018-02-07T06:31:03.791Z,23.27
2018-02-07T06:33:32.024Z,24.00
2018-02-07T06:35:59.468Z,21.57
2018-02-07T06:38:27.891Z,22.00
2018-02-07T06:40:55.334Z,22.00
2018-02-07T06:43:22.779Z,24.27
2018-02-07T06:45:50.273Z,22.53
2018-02-07T06:48:18.499Z,23.63
2018-02-07T06:50:45.936Z,22.77
2018-02-07T06:53:13.379Z,24.03
2018-02-07T06:55:41.584Z,22.03
2018-02-07T06:58:09.029Z,22.90
2018-02-07T07:00:36.487Z,25.37
2018-02-07T07:03:03.929Z,19.67
2018-02-07T07:05:31.376Z,21.73
2018-02-07T07:07:59.652Z,21.73
2018-02-07T07:10:27.874Z,21.13
2018-02-07T07:12:55.299Z,23.83
2018-02-07T07:15:22.751Z,24.40
2018-02-07T07:17:50.198Z,23.50
2018-02-07T07:20:18.480Z,23.90
2018-02-07T07:22:45.920Z,23.17
2018-02-07T07:25:13.370Z,22.60
2018-02-07T07:27:40.803Z,22.47
2018-02-07T07:30:08.257Z,23.60
2018-02-07T07:32:35.697Z,23.27
2018-02-07T07:35:03.162Z,23.30
2018-02-07T07:37:31.230Z,23.67
2018-02-07T07:39:58.689Z,24.40
2018-02-07T07:42:26.124Z,24.37
2018-02-07T07:44:53.565Z,23.23
2018-02-07T07:47:21.772Z,24.30
2018-02-07T07:49:49.223Z,22.80
2018-02-07T07:52:16.660Z,22.73
2018-02-07T07:54:44.106Z,24.93
2018-02-07T07:57:12.324Z,22.67
2018-02-07T07:59:39.849Z,27.30
2018-02-07T08:02:08.052Z,23.27
2018-02-07T08:04:35.493Z,25.40
2018-02-07T08:07:03.010Z,24.30
2018-02-07T08:09:30.439Z,25.00
2018-02-07T08:11:57.958Z,23.00
2018-02-07T08:14:25.386Z,26.77
2018-02-07T08:16:52.835Z,25.07
2018-02-07T08:19:20.277Z,23.67
2018-02-07T08:21:47.725Z,26.63
2018-02-07T08:24:15.168Z,25.03
2018-02-07T08:26:42.598Z,23.37
2018-02-07T08:29:10.039Z,25.50
2018-02-07T08:31:38.245Z,25.60
2018-02-07T08:34:05.689Z,22.80
2018-02-07T08:36:33.125Z,22.37
2018-02-07T08:39:01.339Z,23.37
2018-02-07T08:41:28.776Z,26.53
2018-02-07T08:43:56.211Z,25.77
2018-02-07T08:46:24.423Z,23.77
2018-02-07T08:48:51.876Z,23.87
2018-02-07T08:51:19.317Z,26.33
2018-02-07T08:53:47.528Z,25.17
2018-02-07T08:56:14.962Z,24.07
2018-02-07T08:58:42.406Z,26.50
2018-02-07T09:01:10.684Z,23.27
2018-02-07T09:03:38.889Z,25.13
2018-02-07T09:06:06.332Z,25.83
2018-02-07T09:08:35.827Z,25.40
2018-02-07T09:11:03.277Z,24.97
2018-02-07T09:13:31.482Z,26.30
2018-02-07T09:15:58.935Z,23.33
2018-02-07T09:18:26.356Z,25.50
2018-02-07T09:20:54.661Z,22.27
2018-02-07T09:23:24.144Z,24.40
2018-02-07T09:25:52.356Z,26.10
2018-02-07T09:28:19.789Z,24.40
2018-02-07T09:30:51.128Z,24.43
2018-02-07T09:33:19.336Z,27.63
2018-02-07T09:35:46.784Z,28.47
2018-02-07T09:38:14.212Z,26.43
2018-02-07T09:40:42.495Z,25.00
2018-02-07T09:43:10.694Z,25.23
2018-02-07T09:45:38.124Z,23.93
2018-02-07T09:48:06.399Z,25.00
2018-02-07T09:50:34.608Z,23.80
2018-02-07T09:53:02.058Z,21.50
2018-02-07T09:55:29.490Z,24.83
2018-02-07T09:57:57.708Z,23.40
2018-02-07T10:00:25.147Z,22.30
2018-02-07T10:02:52.629Z,24.60
2018-02-07T10:05:20.064Z,22.80
2018-02-07T10:07:51.585Z,25.10
2018-02-07T10:10:19.799Z,25.87
2018-02-07T10:12:47.240Z,24.97
2018-02-07T10:15:14.667Z,25.97
2018-02-07T10:17:42.918Z,24.97
2018-02-07T10:20:10.400Z,24.30
2018-02-07T10:22:38.641Z,24.93
2018-02-07T10:25:06.028Z,21.97
2018-02-07T10:27:33.472Z,24.90
2018-02-07T10:30:00.922Z,24.30
2018-02-07T10:32:28.349Z,23.97
2018-02-07T10:34:55.793Z,23.37
2018-02-07T10:37:23.240Z,24.80
2018-02-07T10:39:51.516Z,21.60
2018-02-07T10:42:18.947Z,22.10
2018-02-07T10:44:46.413Z,23.63
2018-02-07T10:47:14.612Z,24.60
2018-02-07T10:49:42.058Z,23.53
2018-02-07T10:52:10.270Z,25.50
2018-02-07T10:54:37.748Z,22.93
2018-02-07T10:57:05.310Z,22.60
2018-02-07T10:59:32.742Z,23.87
2018-02-07T11:02:00.277Z,25.23
2018-02-07T11:04:28.559Z,24.83
2018-02-07T11:06:55.986Z,24.50
2018-02-07T11:09:24.209Z,23.37
2018-02-07T11:11:51.658Z,26.43
2018-02-07T11:14:19.092Z,22.40
2018-02-07T11:16:46.528Z,24.10
2018-02-07T11:19:14.832Z,25.20
2018-02-07T11:21:42.264Z,26.00
2018-02-07T11:24:10.475Z,24.43
2018-02-07T11:26:37.933Z,26.80
2018-02-07T11:29:05.548Z,24.37
2018-02-07T11:31:32.992Z,25.13
2018-02-07T11:34:00.428Z,24.30
2018-02-07T11:36:27.932Z,25.10
2018-02-07T11:38:56.164Z,22.57
2018-02-07T11:41:23.620Z,24.50
2018-02-07T11:43:51.140Z,26.03
2018-02-07T11:46:19.775Z,24.70
2018-02-07T11:48:47.309Z,27.00
2018-02-07T11:51:14.827Z,23.63
2018-02-07T11:53:43.313Z,26.27
2018-02-07T11:56:10.826Z,26.13
2018-02-07T11:58:38.264Z,25.27
2018-02-07T12:01:05.782Z,24.97
2018-02-07T12:03:34.021Z,25.43
2018-02-07T12:06:01.559Z,23.00
2018-02-07T12:08:29.593Z,24.20
2018-02-07T12:10:58.368Z,22.60
2018-02-07T12:13:25.894Z,23.57
2018-02-07T12:15:53.380Z,24.20
2018-02-07T12:18:20.824Z,22.87
2018-02-07T12:20:48.503Z,24.80
2018-02-07T12:23:15.997Z,22.87
2018-02-07T12:25:43.525Z,24.67
2018-02-07T12:28:11.730Z,22.97
2018-02-07T12:30:40.151Z,25.33
2018-02-07T12:33:07.600Z,26.53
2018-02-07T12:35:35.099Z,21.87
2018-02-07T12:38:03.443Z,22.57
2018-02-07T12:40:30.880Z,23.07
2018-02-07T12:42:58.319Z,24.67
2018-02-07T12:45:25.889Z,23.93
2018-02-07T12:47:53.322Z,22.70
2018-02-07T12:50:20.933Z,24.43
2018-02-07T12:52:49.318Z,25.87
2018-02-07T12:55:16.905Z,25.43
2018-02-07T12:57:45.126Z,23.00
2018-02-07T13:00:12.584Z,25.17
2018-02-07T13:02:42.056Z,26.27
2018-02-07T13:05:10.264Z,26.07
2018-02-07T13:07:38.719Z,24.63
2018-02-07T13:10:06.164Z,25.23
2018-02-07T13:12:34.440Z,25.80
2018-02-07T13:15:02.643Z,28.10
2018-02-07T13:17:30.071Z,24.70
2018-02-07T13:19:58.285Z,27.00
2018-02-07T13:22:25.832Z,25.20
2018-02-07T13:24:53.277Z,27.00
2018-02-07T13:27:21.471Z,26.37
2018-02-07T13:29:48.915Z,26.33
2018-02-07T13:32:16.348Z,22.90
2018-02-07T13:34:44.564Z,23.40
2018-02-07T13:37:12.003Z,24.93
2018-02-07T13:39:39.456Z,23.73
2018-02-07T13:42:07.740Z,23.90
2018-02-07T13:44:35.171Z,26.53
2018-02-07T13:47:03.489Z,27.43
2018-02-07T13:49:30.928Z,27.80
2018-02-07T13:51:58.368Z,25.60
2018-02-07T13:54:26.563Z,27.07
2018-02-07T13:56:53.994Z,25.57
2018-02-07T13:59:21.435Z,26.10
2018-02-07T14:01:48.876Z,26.90
2018-02-07T14:04:16.332Z,24.73
2018-02-07T14:06:43.779Z,24.57
2018-02-07T14:09:12.004Z,26.30
2018-02-07T14:11:40.281Z,25.10
2018-02-07T14:14:08.498Z,25.50
2018-02-07T14:16:35.927Z,25.63
2018-02-07T14:19:03.373Z,25.03
2018-02-07T14:21:31.579Z,23.53
2018-02-07T14:23:59.034Z,27.00
2018-02-07T14:26:26.467Z,25.73
2018-02-07T14:28:54.679Z,25.00
2018-02-07T14:31:22.124Z,26.07
2018-02-07T14:33:49.683Z,27.57
2018-02-07T14:36:17.133Z,25.87
2018-02-07T14:38:44.575Z,26.40
2018-02-07T14:41:12.017Z,28.60
2018-02-07T14:43:40.232Z,25.67
2018-02-07T14:46:07.664Z,25.73
2018-02-07T14:48:35.116Z,22.97
2018-02-07T14:51:02.573Z,27.13
2018-02-07T14:53:30.017Z,29.30
2018-02-07T14:55:58.227Z,27.33
2018-02-07T14:58:25.673Z,25.10
2018-02-07T15:00:53.105Z,27.00
2018-02-07T15:03:21.305Z,24.93
2018-02-07T15:05:48.742Z,23.90
2018-02-07T15:08:17.155Z,28.77
2018-02-07T15:10:44.599Z,29.17
2018-02-07T15:13:12.063Z,24.77
2018-02-07T15:15:39.532Z,27.93
2018-02-07T15:18:06.974Z,24.73
2018-02-07T15:20:34.409Z,28.37
2018-02-07T15:23:02.621Z,24.77
2018-02-07T15:25:30.059Z,27.13
2018-02-07T15:27:57.508Z,25.70
2018-02-07T15:30:25.710Z,27.07
2018-02-07T15:32:54.191Z,25.87
2018-02-07T15:35:21.674Z,28.10
2018-02-07T15:37:49.066Z,27.10
2018-02-07T15:40:17.276Z,26.43
2018-02-07T15:42:44.726Z,29.90
2018-02-07T15:45:12.179Z,23.90
2018-02-07T15:47:39.614Z,27.97
2018-02-07T15:50:07.825Z,26.57
2018-02-07T15:52:35.365Z,27.30
2018-02-07T15:55:03.845Z,27.07
2018-02-07T15:57:31.290Z,23.80
2018-02-07T15:59:59.501Z,26.53
2018-02-07T16:02:26.927Z,25.63
2018-02-07T16:04:54.384Z,25.27
2018-02-07T16:07:22.592Z,24.20
2018-02-07T16:09:50.041Z,24.20
2018-02-07T16:12:17.483Z,24.53
2018-02-07T16:14:44.935Z,26.53
2018-02-07T16:17:12.381Z,24.37
2018-02-07T16:19:40.682Z,24.93
2018-02-07T16:22:08.105Z,24.73
2018-02-07T16:24:36.341Z,25.00
2018-02-07T16:27:03.771Z,24.57
2018-02-07T16:29:31.217Z,25.80
2018-02-07T16:31:58.658Z,28.60
2018-02-07T16:34:26.871Z,25.30
2018-02-07T16:36:54.319Z,26.43
2018-02-07T16:39:21.769Z,23.53
2018-02-07T16:41:49.211Z,25.43
2018-02-07T16:44:17.413Z,27.63
2018-02-07T16:46:44.863Z,26.10
2018-02-07T16:49:12.295Z,25.90
2018-02-07T16:51:40.505Z,26.13
2018-02-07T16:54:07.944Z,28.50
2018-02-07T16:56:35.384Z,25.17
2018-02-07T16:59:03.604Z,24.47
2018-02-07T17:01:31.063Z,24.80
2018-02-07T17:03:58.498Z,25.63
2018-02-07T17:06:25.942Z,25.60
2018-02-07T17:08:53.390Z,27.63
2018-02-07T17:11:21.593Z,26.37
2018-02-07T17:13:49.045Z,24.47
2018-02-07T17:16:16.475Z,26.40
2018-02-07T17:18:44.694Z,27.00
2018-02-07T17:21:12.165Z,27.93
2018-02-07T17:23:39.616Z,27.80
2018-02-07T17:26:07.075Z,28.40
2018-02-07T17:28:34.527Z,28.77
2018-02-07T17:31:01.975Z,24.57
2018-02-07T17:33:29.426Z,27.50
2018-02-07T17:35:56.877Z,25.37
2018-02-07T17:38:24.311Z,22.23
2018-02-07T17:40:51.820Z,27.40
2018-02-07T17:43:19.267Z,29.37
2018-02-07T17:45:46.716Z,27.97
2018-02-07T17:48:14.156Z,27.17
2018-02-07T17:50:41.604Z,27.73
2018-02-07T17:53:09.048Z,32.10
2018-02-07T17:55:37.324Z,28.23
2018-02-07T17:58:05.673Z,29.23
2018-02-07T18:00:33.125Z,27.90
2018-02-07T18:03:00.616Z,27.63
2018-02-07T18:05:28.853Z,27.90
2018-02-07T18:07:56.298Z,29.20
2018-02-07T18:10:23.752Z,31.83
2018-02-07T18:12:51.202Z,31.17
2018-02-07T18:15:18.772Z,30.70
2018-02-07T18:17:46.224Z,30.50
2018-02-07T18:20:13.690Z,28.60
2018-02-07T18:22:42.120Z,28.37
2018-02-07T18:25:10.337Z,32.87
2018-02-07T18:27:37.791Z,27.80
2018-02-07T18:30:05.240Z,26.80
2018-02-07T18:32:32.682Z,27.90
2018-02-07T18:35:00.144Z,25.37
2018-02-07T18:37:27.574Z,29.27
2018-02-07T18:39:55.879Z,27.47
2018-02-07T18:42:23.356Z,26.57
2018-02-07T18:44:50.823Z,31.93
2018-02-07T18:47:18.269Z,26.47
2018-02-07T18:49:45.711Z,27.93
2018-02-07T18:52:13.159Z,28.67
2018-02-07T18:54:41.643Z,27.80
2018-02-07T18:57:09.088Z,27.93
2018-02-07T18:59:37.671Z,28.97
2018-02-07T19:02:05.093Z,28.93
2018-02-07T19:04:32.576Z,28.60
2018-02-07T19:07:01.448Z,28.87
2018-02-07T19:09:29.850Z,27.77
2018-02-07T19:11:58.111Z,28.40
2018-02-07T19:14:25.567Z,30.27
2018-02-07T19:16:53.041Z,31.17
2018-02-07T19:19:21.316Z,30.80
2018-02-07T19:21:49.645Z,30.30
2018-02-07T19:24:17.224Z,30.83
2018-02-07T19:26:44.668Z,28.30
2018-02-07T19:29:12.117Z,29.40
2018-02-07T19:31:39.873Z,27.90
2018-02-07T19:34:07.312Z,28.70
2018-02-07T19:36:34.747Z,31.47
2018-02-07T19:39:03.111Z,29.43
2018-02-07T19:41:30.580Z,26.80
2018-02-07T19:43:58.924Z,29.07
2018-02-07T19:46:26.375Z,30.73
2018-02-07T19:48:53.816Z,27.90
2018-02-07T19:51:21.255Z,27.40
2018-02-07T19:53:48.723Z,29.37
2018-02-07T19:56:16.180Z,28.20
2018-02-07T19:58:43.648Z,29.87
2018-02-07T20:01:11.108Z,29.70
2018-02-07T20:03:38.571Z,30.20
2018-02-07T20:06:06.088Z,29.80
2018-02-07T20:08:34.351Z,33.20
2018-02-07T20:11:02.628Z,29.90
2018-02-07T20:13:30.842Z,29.83
2018-02-07T20:15:58.284Z,28.90
2018-02-07T20:18:26.748Z,30.87
2018-02-07T20:20:54.957Z,29.83
2018-02-07T20:23:23.160Z,31.77
2018-02-07T20:25:50.617Z,31.50
2018-02-07T20:28:18.111Z,34.03
2018-02-07T20:30:46.411Z,32.17
2018-02-07T20:33:13.863Z,33.57
2018-02-07T20:35:41.308Z,31.47
2018-02-07T20:38:09.622Z,31.93
2018-02-07T20:40:39.841Z,32.77
2018-02-07T20:43:07.368Z,31.63
2018-02-07T20:45:35.584Z,33.90
2018-02-07T20:48:03.019Z,31.77
2018-02-07T20:50:33.524Z,30.23
2018-02-07T20:53:01.735Z,32.00
2018-02-07T20:55:29.174Z,32.00
2018-02-07T20:57:56.612Z,31.57
2018-02-07T21:00:24.834Z,29.47
2018-02-07T21:02:52.278Z,29.17
2018-02-07T21:05:19.735Z,31.83
2018-02-07T21:07:52.271Z,29.30
2018-02-07T21:10:20.530Z,30.83
2018-02-07T21:12:47.971Z,32.40
2018-02-07T21:15:15.442Z,33.20
2018-02-07T21:17:42.887Z,32.67
2018-02-07T21:20:10.340Z,31.03
2018-02-07T21:22:37.773Z,32.60
2018-02-07T21:25:05.231Z,31.50
2018-02-07T21:27:32.659Z,32.67
2018-02-07T21:30:00.873Z,29.67
2018-02-07T21:32:28.325Z,30.50
2018-02-07T21:34:55.764Z,31.10
2018-02-07T21:37:23.199Z,30.33
2018-02-07T21:39:51.411Z,29.13
2018-02-07T21:42:18.848Z,33.60
2018-02-07T21:44:46.289Z,30.00
2018-02-07T21:47:14.498Z,31.87
2018-02-07T21:49:41.936Z,29.47
2018-02-07T21:52:09.398Z,32.30
2018-02-07T21:54:36.831Z,34.50
2018-02-07T21:57:05.032Z,32.60
2018-02-07T21:59:32.471Z,37.20
2018-02-07T22:02:00.676Z,34.30
2018-02-07T22:04:28.124Z,32.60
2018-02-07T22:06:55.560Z,34.30
2018-02-07T22:09:23.765Z,37.23
2018-02-07T22:11:52.215Z,35.83
2018-02-07T22:14:19.667Z,36.47
2018-02-07T22:16:47.879Z,33.83
2018-02-07T22:19:15.320Z,37.90
2018-02-07T22:21:42.768Z,35.93
2018-02-07T22:24:10.202Z,36.77
2018-02-07T22:26:38.443Z,37.43
2018-02-07T22:29:05.881Z,36.77
2018-02-07T22:31:33.347Z,37.80
2018-02-07T22:34:00.796Z,39.37
2018-02-07T22:36:28.235Z,34.57
2018-02-07T22:38:55.691Z,33.57
2018-02-07T22:41:23.128Z,34.20
2018-02-07T22:43:51.343Z,36.60
2018-02-07T22:46:18.788Z,35.37
2018-02-07T22:48:46.227Z,38.17
2018-02-07T22:51:13.668Z,35.87
2018-02-07T22:53:41.883Z,35.10
2018-02-07T22:56:09.320Z,32.93
2018-02-07T22:58:36.761Z,36.70
2018-02-07T23:01:04.981Z,34.77
2018-02-07T23:03:32.424Z,32.10
2018-02-07T23:05:59.868Z,35.70
2018-02-07T23:08:27.308Z,34.60
2018-02-07T23:10:55.533Z,35.67
2018-02-07T23:13:22.968Z,34.43
2018-02-07T23:15:50.416Z,33.73
2018-02-07T23:18:17.853Z,34.00
2018-02-07T23:20:46.075Z,34.07
2018-02-07T23:23:13.508Z,34.87
2018-02-07T23:25:40.950Z,34.17
2018-02-07T23:28:09.148Z,34.83
2018-02-07T23:30:36.583Z,34.77
2018-02-07T23:33:04.792Z,32.37
2018-02-07T23:35:32.233Z,35.40
2018-02-07T23:38:00.692Z,36.10
2018-02-07T23:40:28.921Z,33.70
2018-02-07T23:42:59.903Z,34.37
2018-02-07T23:45:28.131Z,35.23
2018-02-07T23:47:55.570Z,35.00
2018-02-07T23:50:23.010Z,34.67
2018-02-07T23:52:50.454Z,38.47
2018-02-07T23:55:18.647Z,37.03
2018-02-07T23:57:46.095Z,35.63
